createdAt,value
2023-03-04T00:01:31.642Z,44.50
2023-03-04T00:03:59.722Z,42.50
2023-03-04T00:06:28.091Z,42.70
2023-03-04T00:08:56.343Z,41.50
2023-03-04T00:11:25.009Z,40.90
2023-03-04T00:13:53.276Z,49.00
2023-03-04T00:16:21.418Z,53.70
2023-03-04T00:18:49.295Z,47.30
2023-03-04T00:21:17.231Z,43.20
2023-03-04T00:23:45.331Z,54.20
2023-03-04T00:26:13.708Z,48.40
2023-03-04T00:28:43.438Z,53.70
2023-03-04T00:31:12.264Z,58.20
2023-03-04T00:33:40.579Z,52.30
2023-03-04T00:36:08.695Z,59.90
2023-03-04T00:38:36.975Z,53.50
2023-03-04T00:41:05.208Z,63.50
2023-03-04T00:43:33.237Z,61.70
2023-03-04T00:46:01.330Z,41.50
2023-03-04T00:48:31.170Z,60.30
2023-03-04T00:50:59.219Z,44.80
2023-03-04T00:53:27.366Z,55.10
2023-03-04T00:55:55.388Z,61.40
2023-03-04T00:58:23.289Z,62.30
2023-03-04T01:00:51.385Z,55.90
2023-03-04T01:03:19.806Z,55.10
2023-03-04T01:05:47.788Z,63.70
2023-03-04T01:08:15.814Z,65.30
2023-03-04T01:10:44.892Z,63.70
2023-03-04T01:13:13.494Z,52.80
2023-03-04T01:15:41.562Z,55.20
2023-03-04T01:18:10.015Z,34.50
2023-03-04T01:20:38.227Z,50.50
2023-03-04T01:23:06.265Z,48.10
2023-03-04T01:25:34.464Z,46.60
2023-03-04T01:28:02.589Z,35.00
2023-03-04T01:30:30.736Z,44.90
2023-03-04T01:32:58.829Z,27.80
2023-03-04T01:35:26.851Z,37.00
2023-03-04T01:37:54.947Z,40.50
2023-03-04T01:40:22.939Z,41.10
2023-03-04T01:42:51.116Z,48.80
2023-03-04T01:45:20.347Z,34.10
2023-03-04T01:47:50.048Z,43.90
2023-03-04T01:50:23.117Z,45.70
2023-03-04T01:52:51.296Z,40.00
2023-03-04T01:55:21.729Z,33.90
2023-03-04T01:57:51.845Z,32.60
2023-03-04T02:00:27.954Z,33.40
2023-03-04T02:03:24.776Z,46.70
2023-03-04T02:05:53.925Z,42.40
2023-03-04T02:08:24.879Z,36.10
2023-03-04T02:10:54.265Z,36.80
2023-03-04T02:13:23.407Z,25.10
2023-03-04T02:15:53.130Z,50.80
2023-03-04T02:18:23.990Z,47.80
2023-03-04T02:21:19.857Z,47.90
2023-03-04T02:24:06.514Z,40.60
2023-03-04T02:26:39.961Z,43.00
2023-03-04T02:29:10.823Z,45.20
2023-03-04T02:31:43.287Z,49.80
2023-03-04T02:34:17.441Z,41.30
2023-03-04T02:36:46.907Z,41.70
2023-03-04T02:39:22.137Z,44.80
2023-03-04T02:41:54.407Z,43.60
2023-03-04T02:44:29.112Z,35.30
2023-03-04T02:46:59.229Z,34.30
2023-03-04T02:49:29.559Z,42.30
2023-03-04T02:52:01.751Z,51.40
2023-03-04T02:54:30.073Z,42.20
2023-03-04T02:57:01.518Z,41.70
2023-03-04T02:59:30.459Z,53.50
2023-03-04T03:01:58.990Z,43.60
2023-03-04T03:04:27.825Z,46.20
2023-03-04T03:06:56.174Z,45.40
2023-03-04T03:09:24.225Z,48.30
2023-03-04T03:11:52.268Z,45.00
2023-03-04T03:14:21.104Z,45.50
2023-03-04T03:16:49.150Z,42.90
2023-03-04T03:19:17.128Z,41.30
2023-03-04T03:21:45.079Z,40.50
2023-03-04T03:24:13.214Z,40.00
2023-03-04T03:26:45.559Z,47.10
2023-03-04T03:29:13.730Z,40.90
2023-03-04T03:31:41.822Z,43.40
2023-03-04T03:34:09.987Z,44.30
2023-03-04T03:36:38.168Z,39.80
2023-03-04T03:39:06.337Z,45.00
2023-03-04T03:41:34.657Z,47.20
2023-03-04T03:44:02.824Z,36.40
2023-03-04T03:46:30.884Z,41.40
2023-03-04T03:48:58.916Z,42.20
2023-03-04T03:51:26.917Z,40.90
2023-03-04T03:53:54.810Z,38.40
2023-03-04T03:56:22.700Z,29.10
2023-03-04T03:58:50.866Z,44.40
2023-03-04T04:05:24.947Z,41.40
2023-03-04T04:07:54.175Z,43.30
2023-03-04T04:10:22.179Z,43.40
2023-03-04T04:12:50.226Z,43.30
2023-03-04T04:15:19.325Z,43.10
2023-03-04T04:17:47.288Z,38.80
2023-03-04T04:20:15.482Z,40.50
2023-03-04T04:22:43.962Z,39.70
2023-03-04T04:25:11.930Z,44.40
2023-03-04T04:27:39.965Z,42.60
2023-03-04T04:34:34.821Z,40.50
2023-03-04T04:37:02.819Z,37.80
2023-03-04T04:39:30.767Z,40.50
2023-03-04T04:41:58.662Z,45.20
2023-03-04T04:44:27.415Z,38.30
2023-03-04T04:46:55.548Z,35.50
2023-03-04T04:49:23.542Z,40.10
2023-03-04T04:51:51.504Z,40.40
2023-03-04T04:54:19.536Z,38.20
2023-03-04T04:56:47.512Z,37.20
2023-03-04T04:59:15.954Z,39.90
2023-03-04T05:01:44.019Z,35.20
2023-03-04T05:04:11.941Z,37.40
2023-03-04T05:06:40.009Z,36.50
2023-03-04T05:09:07.940Z,43.10
2023-03-04T05:11:36.007Z,36.60
2023-03-04T05:14:03.978Z,37.50
2023-03-04T05:16:32.297Z,40.80
2023-03-04T05:19:00.877Z,34.60
2023-03-04T05:21:28.947Z,36.80
2023-03-04T05:23:56.913Z,37.70
2023-03-04T05:26:24.791Z,35.80
2023-03-04T05:28:53.399Z,38.00
2023-03-04T05:31:21.518Z,28.00
2023-03-04T05:33:49.478Z,36.50
2023-03-04T05:36:17.487Z,36.30
2023-03-04T05:38:45.540Z,37.00
2023-03-04T05:41:13.551Z,33.50
2023-03-04T05:43:42.952Z,34.20
2023-03-04T05:46:15.810Z,33.30
2023-03-04T05:48:44.869Z,34.20
2023-03-04T05:51:12.735Z,36.80
2023-03-04T05:53:41.596Z,32.00
2023-03-04T05:56:11.611Z,34.10
2023-03-04T05:58:40.933Z,35.40
2023-03-04T06:01:09.918Z,30.10
2023-03-04T06:03:38.086Z,32.80
2023-03-04T06:06:06.244Z,35.70
2023-03-04T06:08:35.796Z,38.10
2023-03-04T06:11:05.692Z,26.40
2023-03-04T06:13:34.845Z,28.70
2023-03-04T06:16:02.836Z,35.90
2023-03-04T06:18:30.937Z,35.50
2023-03-04T06:21:00.791Z,34.10
2023-03-04T06:23:30.151Z,31.20
2023-03-04T06:26:00.115Z,39.60
2023-03-04T06:28:28.885Z,33.50
2023-03-04T06:30:57.802Z,27.40
2023-03-04T06:33:26.534Z,30.80
2023-03-04T06:35:56.404Z,36.20
2023-03-04T06:38:25.972Z,29.30
2023-03-04T06:40:57.209Z,33.90
2023-03-04T06:43:25.542Z,35.60
2023-03-04T06:45:53.855Z,31.90
2023-03-04T06:48:21.898Z,29.00
2023-03-04T06:50:49.907Z,28.50
2023-03-04T06:53:17.824Z,23.60
2023-03-04T06:55:46.479Z,33.40
2023-03-04T06:58:14.770Z,33.90
2023-03-04T07:00:42.755Z,29.60
2023-03-04T07:03:13.599Z,33.50
2023-03-04T07:05:42.948Z,29.30
2023-03-04T07:08:10.831Z,34.70
2023-03-04T07:10:39.296Z,35.00
2023-03-04T07:13:07.397Z,36.60
2023-03-04T07:15:36.291Z,34.50
2023-03-04T07:18:04.312Z,31.20
2023-03-04T07:20:32.605Z,33.80
2023-03-04T07:23:00.526Z,22.00
2023-03-04T07:25:28.496Z,33.30
2023-03-04T07:27:56.457Z,31.20
2023-03-04T07:30:24.291Z,27.60
2023-03-04T07:32:52.427Z,32.80
2023-03-04T07:35:20.491Z,33.30
2023-03-04T07:37:48.553Z,29.20
2023-03-04T07:40:16.978Z,33.10
2023-03-04T07:42:49.905Z,26.60
2023-03-04T07:45:18.380Z,27.80
2023-03-04T07:47:46.581Z,31.00
2023-03-04T07:50:17.547Z,30.30
2023-03-04T07:52:48.189Z,32.40
2023-03-04T07:55:17.232Z,29.70
2023-03-04T07:57:48.313Z,24.20
2023-03-04T08:00:17.705Z,30.50
2023-03-04T08:02:45.683Z,31.70
2023-03-04T08:05:14.205Z,27.10
2023-03-04T08:07:42.232Z,28.00
2023-03-04T08:10:10.969Z,30.50
2023-03-04T08:12:40.653Z,28.00
2023-03-04T08:15:09.080Z,31.40
2023-03-04T08:17:38.228Z,27.90
2023-03-04T08:20:06.776Z,27.40
2023-03-04T08:22:34.927Z,22.50
2023-03-04T08:25:03.996Z,31.10
2023-03-04T08:27:31.917Z,28.50
2023-03-04T08:29:59.898Z,30.00
2023-03-04T08:32:28.706Z,31.70
2023-03-04T08:34:57.066Z,22.30
2023-03-04T08:37:25.128Z,31.10
2023-03-04T08:39:53.098Z,16.80
2023-03-04T08:42:21.138Z,27.50
2023-03-04T08:44:49.329Z,29.10
2023-03-04T08:47:17.306Z,30.50
2023-03-04T08:49:45.231Z,30.70
2023-03-04T08:52:13.310Z,28.30
2023-03-04T08:54:41.443Z,23.30
2023-03-04T08:57:09.363Z,24.70
2023-03-04T08:59:38.577Z,18.40
2023-03-04T09:02:07.113Z,23.30
2023-03-04T09:04:35.472Z,20.80
2023-03-04T09:07:04.264Z,26.60
2023-03-04T09:09:32.173Z,28.10
2023-03-04T09:12:00.126Z,25.30
2023-03-04T09:14:28.813Z,26.40
2023-03-04T09:16:56.789Z,27.80
2023-03-04T09:19:24.790Z,18.30
2023-03-04T09:21:52.681Z,21.60
2023-03-04T09:24:20.467Z,30.80
2023-03-04T09:26:52.286Z,28.30
2023-03-04T09:29:21.147Z,30.80
2023-03-04T09:31:49.052Z,23.60
2023-03-04T09:34:16.962Z,29.10
2023-03-04T09:36:44.987Z,24.50
2023-03-04T09:39:12.806Z,22.10
2023-03-04T09:41:44.735Z,28.20
2023-03-04T09:44:43.585Z,20.70
2023-03-04T09:47:14.859Z,24.40
2023-03-04T09:49:45.805Z,29.10
2023-03-04T09:52:58.442Z,25.20
2023-03-04T09:55:33.983Z,21.50
2023-03-04T09:58:17.151Z,23.90
2023-03-04T10:00:52.150Z,26.00
2023-03-04T10:03:24.689Z,17.10
2023-03-04T10:06:06.208Z,20.00
2023-03-04T10:08:42.545Z,25.50
2023-03-04T10:11:24.836Z,27.70
2023-03-04T10:14:11.688Z,22.20
2023-03-04T10:16:51.890Z,26.20
2023-03-04T10:19:46.968Z,23.40
2023-03-04T10:22:21.013Z,26.80
2023-03-04T10:24:49.405Z,26.10
2023-03-04T10:27:19.808Z,22.80
2023-03-04T10:29:49.108Z,26.10
2023-03-04T10:32:19.672Z,21.30
2023-03-04T10:34:47.782Z,28.60
2023-03-04T10:37:15.795Z,20.30
2023-03-04T10:39:45.996Z,27.00
2023-03-04T10:42:13.879Z,27.50
2023-03-04T10:44:44.905Z,16.50
2023-03-04T10:47:14.283Z,29.00
2023-03-04T10:49:54.166Z,24.70
2023-03-04T10:52:32.504Z,25.80
2023-03-04T10:55:29.915Z,26.50
2023-03-04T10:58:04.982Z,25.70
2023-03-04T11:04:36.303Z,24.50
2023-03-04T11:07:10.689Z,17.60
2023-03-04T11:09:40.265Z,28.10
2023-03-04T11:12:17.218Z,20.40
2023-03-04T11:14:50.951Z,22.00
2023-03-04T11:17:25.221Z,21.20
2023-03-04T11:20:21.011Z,22.60
2023-03-04T11:22:51.063Z,29.10
2023-03-04T11:25:27.745Z,25.10
2023-03-04T11:28:00.200Z,23.00
2023-03-04T11:30:42.893Z,23.90
2023-03-04T11:33:17.119Z,27.60
2023-03-04T11:36:04.125Z,23.20
2023-03-04T11:38:39.320Z,15.90
2023-03-04T11:41:19.325Z,25.60
2023-03-04T11:43:47.407Z,22.80
2023-03-04T11:46:46.151Z,26.80
2023-03-04T11:49:32.910Z,27.80
2023-03-04T11:52:29.569Z,25.90
2023-03-04T11:55:28.318Z,25.20
2023-03-04T11:58:04.066Z,28.30
2023-03-04T12:00:38.228Z,20.90
2023-03-04T12:03:39.673Z,18.80
2023-03-04T12:06:30.194Z,21.00
2023-03-04T12:09:18.168Z,23.60
2023-03-04T12:12:25.189Z,24.80
2023-03-04T12:15:15.089Z,21.80
2023-03-04T12:17:57.879Z,21.70
2023-03-04T12:20:42.146Z,28.90
2023-03-04T12:23:28.203Z,22.90
2023-03-04T12:26:06.315Z,24.40
2023-03-04T12:28:54.970Z,24.20
2023-03-04T12:31:42.521Z,28.20
2023-03-04T12:34:22.479Z,27.00
2023-03-04T12:37:13.185Z,25.40
2023-03-04T12:39:58.813Z,29.70
2023-03-04T12:43:01.036Z,23.30
2023-03-04T12:45:28.916Z,19.90
2023-03-04T12:48:24.161Z,25.50
2023-03-04T12:51:09.712Z,26.50
2023-03-04T12:54:06.536Z,30.00
2023-03-04T12:56:44.857Z,25.10
2023-03-04T12:59:18.773Z,29.20
2023-03-04T13:01:56.430Z,32.40
2023-03-04T13:04:29.637Z,27.70
2023-03-04T13:06:57.650Z,31.50
2023-03-04T13:09:31.997Z,29.30
2023-03-04T13:12:16.002Z,24.80
2023-03-04T13:15:08.824Z,24.10
2023-03-04T13:17:44.071Z,18.20
2023-03-04T13:20:23.324Z,19.20
2023-03-04T13:22:59.716Z,16.00
2023-03-04T13:25:27.733Z,10.40
2023-03-04T13:28:11.043Z,14.00
2023-03-04T13:30:39.071Z,8.90
2023-03-04T13:33:16.095Z,8.90
2023-03-04T13:35:47.055Z,9.00
2023-03-04T13:38:21.294Z,7.30
2023-03-04T13:41:07.508Z,8.30
2023-03-04T13:43:46.554Z,10.90
2023-03-04T13:46:20.816Z,9.60
2023-03-04T13:48:52.004Z,11.80
2023-03-04T13:51:49.015Z,10.50
2023-03-04T13:54:29.118Z,13.00
2023-03-04T13:57:00.422Z,9.00
2023-03-04T13:59:50.497Z,8.70
2023-03-04T14:02:22.820Z,7.00
2023-03-04T14:04:53.706Z,10.80
2023-03-04T14:07:32.201Z,9.70
2023-03-04T14:10:11.979Z,10.80
2023-03-04T14:13:06.476Z,9.60
2023-03-04T14:15:35.426Z,11.30
2023-03-04T14:18:05.805Z,12.30
2023-03-04T14:20:36.964Z,14.60
2023-03-04T14:23:36.267Z,11.10
2023-03-04T14:26:15.766Z,10.80
2023-03-04T14:28:52.877Z,16.30
2023-03-04T14:31:24.246Z,18.90
2023-03-04T14:33:59.901Z,16.30
2023-03-04T14:36:35.872Z,17.40
2023-03-04T14:39:06.862Z,11.30
2023-03-04T14:41:39.437Z,14.40
2023-03-04T14:44:11.695Z,12.00
2023-03-04T14:46:56.881Z,11.40
2023-03-04T14:49:35.755Z,17.30
2023-03-04T14:52:05.066Z,16.70
2023-03-04T14:54:38.293Z,16.10
2023-03-04T14:57:26.522Z,15.80
2023-03-04T14:59:54.851Z,18.90
2023-03-04T15:02:33.789Z,15.00
2023-03-04T15:05:16.894Z,13.90
2023-03-04T15:07:51.962Z,15.20
2023-03-04T15:10:24.650Z,12.20
2023-03-04T15:12:55.524Z,14.60
2023-03-04T15:15:33.076Z,17.40
2023-03-04T15:18:26.473Z,19.10
2023-03-04T15:21:00.932Z,23.60
2023-03-04T15:23:31.495Z,20.80
2023-03-04T15:26:02.529Z,18.80
2023-03-04T15:28:36.509Z,12.90
2023-03-04T15:31:05.967Z,11.20
2023-03-04T15:33:34.307Z,13.50
2023-03-04T15:36:03.444Z,10.40
2023-03-04T15:38:31.777Z,11.20
2023-03-04T15:40:59.940Z,8.20
2023-03-04T15:43:28.022Z,6.00
2023-03-04T15:45:56.013Z,6.60
2023-03-04T15:48:24.076Z,5.50
2023-03-04T15:50:58.191Z,7.90
2023-03-04T15:53:32.870Z,3.80
2023-03-04T15:56:02.218Z,7.60
2023-03-04T15:58:34.884Z,4.40
2023-03-04T16:01:03.890Z,6.10
2023-03-04T16:03:32.359Z,4.10
2023-03-04T16:06:00.438Z,4.70
2023-03-04T16:08:29.065Z,4.00
2023-03-04T16:10:57.229Z,5.70
2023-03-04T16:13:25.290Z,3.60
2023-03-04T16:15:53.457Z,5.70
2023-03-04T16:18:21.581Z,3.90
2023-03-04T16:20:51.156Z,3.40
2023-03-04T16:23:23.257Z,5.70
2023-03-04T16:28:22.396Z,7.60
2023-03-04T16:30:50.577Z,7.30
2023-03-04T16:33:18.645Z,2.40
2023-03-04T16:35:47.416Z,5.00
2023-03-04T16:38:33.245Z,2.40
2023-03-04T16:41:02.202Z,3.30
2023-03-04T16:43:30.381Z,3.40
2023-03-04T16:45:58.640Z,2.70
2023-03-04T16:48:26.669Z,3.50
2023-03-04T16:50:57.365Z,6.10
2023-03-04T16:53:28.043Z,7.00
2023-03-04T16:55:58.431Z,5.20
2023-03-04T16:58:26.458Z,6.50
2023-03-04T17:00:55.044Z,6.40
2023-03-04T17:03:23.017Z,1.80
2023-03-04T17:05:51.109Z,6.30
2023-03-04T17:08:18.979Z,10.00
2023-03-04T17:10:48.979Z,8.20
2023-03-04T17:13:16.913Z,3.50
2023-03-04T17:15:46.921Z,4.40
2023-03-04T17:18:14.917Z,5.50
2023-03-04T17:20:42.979Z,10.00
2023-03-04T17:23:11.104Z,7.20
2023-03-04T17:25:39.148Z,7.60
2023-03-04T17:28:07.109Z,4.30
2023-03-04T17:30:35.098Z,4.70
2023-03-04T17:33:03.199Z,6.50
2023-03-04T17:35:31.113Z,3.70
2023-03-04T17:37:59.048Z,5.80
2023-03-04T17:40:27.013Z,4.30
2023-03-04T17:42:55.567Z,6.30
2023-03-04T17:45:23.612Z,4.60
2023-03-04T17:47:52.609Z,2.40
2023-03-04T17:50:21.385Z,4.80
2023-03-04T17:52:49.243Z,4.10
2023-03-04T17:55:17.192Z,4.90
2023-03-04T17:57:45.040Z,4.70
2023-03-04T18:00:13.667Z,4.60
2023-03-04T18:02:41.496Z,6.00
2023-03-04T18:05:11.544Z,6.10
2023-03-04T18:07:39.534Z,8.00
2023-03-04T18:10:07.871Z,6.00
2023-03-04T18:12:35.877Z,7.60
2023-03-04T18:15:04.049Z,6.10
2023-03-04T18:17:32.187Z,9.60
2023-03-04T18:20:01.740Z,7.80
2023-03-04T18:22:31.747Z,6.20
2023-03-04T18:24:59.831Z,7.10
2023-03-04T18:27:28.041Z,8.60
2023-03-04T18:29:56.803Z,6.50
2023-03-04T18:32:25.319Z,4.10
2023-03-04T18:34:54.764Z,6.70
2023-03-04T18:37:22.741Z,8.40
2023-03-04T18:39:50.846Z,4.20
2023-03-04T18:42:18.812Z,2.90
2023-03-04T18:44:46.866Z,4.20
2023-03-04T18:47:14.795Z,3.30
2023-03-04T18:49:45.790Z,3.30
2023-03-04T18:52:14.656Z,7.30
2023-03-04T18:54:42.609Z,5.40
2023-03-04T18:57:13.776Z,5.50
2023-03-04T18:59:49.287Z,3.40
2023-03-04T19:04:36.911Z,5.50
2023-03-04T19:07:04.932Z,3.10
2023-03-04T19:09:32.830Z,4.70
2023-03-04T19:12:03.027Z,5.60
2023-03-04T19:14:31.136Z,5.00
2023-03-04T19:16:59.124Z,6.20
2023-03-04T19:19:27.186Z,6.40
2023-03-04T19:21:55.347Z,4.30
2023-03-04T19:24:24.323Z,4.40
2023-03-04T19:26:53.269Z,11.40
2023-03-04T19:29:21.260Z,3.30
2023-03-04T19:31:49.372Z,8.00
2023-03-04T19:34:18.480Z,5.10
2023-03-04T19:36:46.440Z,4.70
2023-03-04T19:39:15.747Z,5.70
2023-03-04T19:41:44.238Z,5.80
2023-03-04T19:44:12.249Z,4.60
2023-03-04T19:46:40.542Z,8.80
2023-03-04T19:49:10.252Z,7.40
2023-03-04T19:51:38.418Z,8.70
2023-03-04T19:54:06.449Z,9.00
2023-03-04T19:56:34.387Z,5.50
2023-03-04T19:59:02.590Z,10.00
2023-03-04T20:01:33.482Z,7.00
2023-03-04T20:04:06.324Z,6.00
2023-03-04T20:06:40.225Z,3.80
2023-03-04T20:09:08.469Z,7.00
2023-03-04T20:11:44.206Z,6.80
2023-03-04T20:14:16.219Z,9.50
2023-03-04T20:16:44.171Z,4.70
2023-03-04T20:19:12.294Z,10.10
2023-03-04T20:21:40.487Z,7.70
2023-03-04T20:24:08.600Z,6.10
2023-03-04T20:26:39.508Z,8.10
2023-03-04T20:29:07.832Z,5.70
2023-03-04T20:31:39.392Z,9.30
2023-03-04T20:34:08.768Z,13.50
2023-03-04T20:36:38.645Z,13.70
2023-03-04T20:39:26.890Z,14.10
2023-03-04T20:41:59.404Z,13.40
2023-03-04T20:44:28.347Z,12.50
2023-03-04T20:46:56.779Z,13.60
2023-03-04T20:49:27.333Z,12.50
2023-03-04T20:52:00.690Z,15.00
2023-03-04T20:54:30.621Z,9.50
2023-03-04T20:56:59.868Z,10.00
2023-03-04T20:59:28.137Z,10.10
2023-03-04T21:01:56.502Z,10.60
2023-03-04T21:04:24.709Z,8.30
2023-03-04T21:06:53.661Z,10.00
2023-03-04T21:09:23.060Z,10.40
2023-03-04T21:11:51.559Z,12.40
2023-03-04T21:14:23.105Z,15.40
2023-03-04T21:16:54.512Z,14.90
2023-03-04T21:19:25.818Z,14.00
2023-03-04T21:21:55.344Z,11.70
2023-03-04T21:24:26.370Z,14.90
2023-03-04T21:26:54.246Z,15.40
2023-03-04T21:29:24.820Z,12.90
2023-03-04T21:32:09.685Z,12.60
2023-03-04T21:37:17.793Z,11.00
2023-03-04T21:42:18.756Z,15.50
2023-03-04T21:44:50.149Z,12.50
2023-03-04T21:47:20.798Z,12.10
2023-03-04T21:49:49.030Z,9.50
2023-03-04T21:52:18.612Z,9.60
2023-03-04T21:54:47.735Z,11.20
2023-03-04T21:57:15.971Z,10.70
2023-03-04T21:59:44.366Z,10.60
2023-03-04T22:02:18.075Z,13.30
2023-03-04T22:05:06.422Z,9.30
2023-03-04T22:07:34.828Z,13.40
2023-03-04T22:10:07.223Z,11.60
2023-03-04T22:12:35.242Z,16.70
2023-03-04T22:15:03.325Z,10.00
2023-03-04T22:17:33.781Z,15.70
2023-03-04T22:20:02.715Z,13.80
2023-03-04T22:22:31.119Z,14.00
2023-03-04T22:25:00.277Z,19.10
2023-03-04T22:27:28.197Z,17.70
2023-03-04T22:29:56.181Z,15.60
2023-03-04T22:32:24.193Z,18.40
2023-03-04T22:34:52.170Z,16.80
2023-03-04T22:37:20.054Z,16.00
2023-03-04T22:39:48.824Z,17.10
2023-03-04T22:42:16.637Z,15.60
2023-03-04T22:44:45.050Z,18.40
2023-03-04T22:47:13.125Z,16.80
2023-03-04T22:49:41.646Z,14.80
2023-03-04T22:52:09.611Z,12.30
2023-03-04T22:54:37.469Z,11.40
2023-03-04T22:57:05.479Z,16.20
2023-03-04T22:59:33.424Z,16.50
2023-03-04T23:02:01.677Z,14.00
2023-03-04T23:04:30.119Z,15.90
2023-03-04T23:06:58.232Z,15.80
2023-03-04T23:09:26.289Z,14.80
2023-03-04T23:11:55.615Z,18.40
2023-03-04T23:14:23.589Z,24.30
2023-03-04T23:16:51.695Z,26.50
2023-03-04T23:19:19.697Z,32.10
2023-03-04T23:21:47.781Z,38.80
2023-03-04T23:24:15.769Z,41.90
2023-03-04T23:26:43.899Z,50.70
2023-03-04T23:29:15.102Z,39.40
2023-03-04T23:31:44.319Z,42.90
2023-03-04T23:34:13.783Z,37.80
2023-03-04T23:36:42.324Z,38.80
2023-03-04T23:39:12.832Z,28.30
2023-03-04T23:41:40.911Z,29.00
2023-03-04T23:44:12.567Z,32.00
2023-03-04T23:46:41.268Z,31.50
2023-03-04T23:49:13.153Z,29.00
2023-03-04T23:54:09.291Z,20.30
2023-03-04T23:56:37.269Z,17.80
2023-03-04T23:59:07.676Z,20.70
